sensor_id;sensor_type;location;lat;lon;timestamp;P1;durP1;ratioP1;P2;durP2;ratioP2
6406;SDS011;3236;51.022;6.818;2022-11-15T00:01:07;13.82;;;8.70;;
6406;SDS011;3236;51.022;6.818;2022-11-15T00:03:34;15.25;;;8.55;;
6406;SDS011;3236;51.022;6.818;2022-11-15T00:06:02;15.35;;;9.45;;
6406;SDS011;3236;51.022;6.818;2022-11-15T00:08:30;14.18;;;8.77;;
6406;SDS011;3236;51.022;6.818;2022-11-15T00:10:58;16.45;;;9.85;;
6406;SDS011;3236;51.022;6.818;2022-11-15T00:13:27;16.42;;;9.63;;
6406;SDS011;3236;51.022;6.818;2022-11-15T00:15:56;17.13;;;9.80;;
6406;SDS011;3236;51.022;6.818;2022-11-15T00:18:27;15.95;;;9.57;;
6406;SDS011;3236;51.022;6.818;2022-11-15T00:20:54;20.85;;;9.95;;
6406;SDS011;3236;51.022;6.818;2022-11-15T00:23:21;15.63;;;10.10;;
6406;SDS011;3236;51.022;6.818;2022-11-15T00:25:54;21.92;;;9.77;;
6406;SDS011;3236;51.022;6.818;2022-11-15T00:28:22;14.05;;;9.00;;
6406;SDS011;3236;51.022;6.818;2022-11-15T00:30:51;17.30;;;9.85;;
6406;SDS011;3236;51.022;6.818;2022-11-15T00:33:26;12.52;;;8.63;;
6406;SDS011;3236;51.022;6.818;2022-11-15T00:35:53;14.75;;;7.97;;
6406;SDS011;3236;51.022;6.818;2022-11-15T00:40:52;13.05;;;8.02;;
6406;SDS011;3236;51.022;6.818;2022-11-15T00:43:19;15.82;;;8.93;;
6406;SDS011;3236;51.022;6.818;2022-11-15T00:45:46;15.65;;;9.02;;
6406;SDS011;3236;51.022;6.818;2022-11-15T00:48:15;14.00;;;9.05;;
6406;SDS011;3236;51.022;6.818;2022-11-15T00:50:42;20.20;;;9.63;;
6406;SDS011;3236;51.022;6.818;2022-11-15T00:53:09;17.52;;;8.20;;
6406;SDS011;3236;51.022;6.818;2022-11-15T00:55:36;14.10;;;8.70;;
6406;SDS011;3236;51.022;6.818;2022-11-15T00:58:04;14.18;;;9.43;;
6406;SDS011;3236;51.022;6.818;2022-11-15T01:00:32;12.93;;;8.90;;
6406;SDS011;3236;51.022;6.818;2022-11-15T01:02:59;17.60;;;9.55;;
6406;SDS011;3236;51.022;6.818;2022-11-15T01:05:28;14.40;;;8.98;;
6406;SDS011;3236;51.022;6.818;2022-11-15T01:08:00;14.50;;;8.57;;
6406;SDS011;3236;51.022;6.818;2022-11-15T01:10:27;11.70;;;8.65;;
6406;SDS011;3236;51.022;6.818;2022-11-15T01:12:54;16.35;;;8.55;;
6406;SDS011;3236;51.022;6.818;2022-11-15T01:15:22;13.05;;;8.90;;
6406;SDS011;3236;51.022;6.818;2022-11-15T01:17:49;15.75;;;8.85;;
6406;SDS011;3236;51.022;6.818;2022-11-15T01:20:16;15.90;;;8.40;;
6406;SDS011;3236;51.022;6.818;2022-11-15T01:22:45;11.60;;;8.38;;
6406;SDS011;3236;51.022;6.818;2022-11-15T01:25:12;12.27;;;8.77;;
6406;SDS011;3236;51.022;6.818;2022-11-15T01:27:39;15.82;;;8.70;;
6406;SDS011;3236;51.022;6.818;2022-11-15T01:30:07;18.67;;;9.20;;
6406;SDS011;3236;51.022;6.818;2022-11-15T01:32:35;15.38;;;7.90;;
6406;SDS011;3236;51.022;6.818;2022-11-15T01:35:02;15.73;;;8.70;;
6406;SDS011;3236;51.022;6.818;2022-11-15T01:37:30;13.05;;;8.68;;
6406;SDS011;3236;51.022;6.818;2022-11-15T01:39:59;20.33;;;8.38;;
6406;SDS011;3236;51.022;6.818;2022-11-15T01:42:26;14.75;;;8.45;;
6406;SDS011;3236;51.022;6.818;2022-11-15T01:44:53;18.00;;;9.15;;
6406;SDS011;3236;51.022;6.818;2022-11-15T01:47:21;12.95;;;8.43;;
6406;SDS011;3236;51.022;6.818;2022-11-15T01:49:53;16.38;;;8.23;;
6406;SDS011;3236;51.022;6.818;2022-11-15T01:52:23;13.07;;;7.97;;
6406;SDS011;3236;51.022;6.818;2022-11-15T01:54:53;14.55;;;8.23;;
6406;SDS011;3236;51.022;6.818;2022-11-15T01:57:26;15.77;;;9.68;;
6406;SDS011;3236;51.022;6.818;2022-11-15T02:00:00;15.15;;;8.50;;
6406;SDS011;3236;51.022;6.818;2022-11-15T02:02:30;16.90;;;9.13;;
6406;SDS011;3236;51.022;6.818;2022-11-15T02:04:58;15.05;;;8.55;;
6406;SDS011;3236;51.022;6.818;2022-11-15T02:07:25;19.98;;;9.43;;
6406;SDS011;3236;51.022;6.818;2022-11-15T02:09:57;17.30;;;8.55;;
6406;SDS011;3236;51.022;6.818;2022-11-15T02:12:27;14.07;;;8.68;;
6406;SDS011;3236;51.022;6.818;2022-11-15T02:14:55;14.63;;;8.45;;
6406;SDS011;3236;51.022;6.818;2022-11-15T02:17:30;13.05;;;8.07;;
6406;SDS011;3236;51.022;6.818;2022-11-15T02:20:14;16.25;;;9.27;;
6406;SDS011;3236;51.022;6.818;2022-11-15T02:23:13;11.10;;;7.97;;
6406;SDS011;3236;51.022;6.818;2022-11-15T02:26:06;16.27;;;8.55;;
6406;SDS011;3236;51.022;6.818;2022-11-15T02:28:58;12.52;;;8.02;;
6406;SDS011;3236;51.022;6.818;2022-11-15T02:31:28;12.57;;;7.65;;
6406;SDS011;3236;51.022;6.818;2022-11-15T02:33:59;17.92;;;9.05;;
6406;SDS011;3236;51.022;6.818;2022-11-15T02:36:34;15.45;;;8.45;;
6406;SDS011;3236;51.022;6.818;2022-11-15T02:39:05;12.10;;;8.35;;
6406;SDS011;3236;51.022;6.818;2022-11-15T02:41:40;13.35;;;8.60;;
6406;SDS011;3236;51.022;6.818;2022-11-15T02:44:13;16.63;;;8.88;;
6406;SDS011;3236;51.022;6.818;2022-11-15T02:46:47;15.32;;;8.75;;
6406;SDS011;3236;51.022;6.818;2022-11-15T02:49:35;11.95;;;8.75;;
6406;SDS011;3236;51.022;6.818;2022-11-15T02:52:04;13.75;;;8.57;;
6406;SDS011;3236;51.022;6.818;2022-11-15T02:54:32;16.58;;;8.38;;
6406;SDS011;3236;51.022;6.818;2022-11-15T02:57:07;15.75;;;8.55;;
6406;SDS011;3236;51.022;6.818;2022-11-15T02:59:43;12.10;;;8.63;;
6406;SDS011;3236;51.022;6.818;2022-11-15T03:02:54;15.20;;;8.75;;
6406;SDS011;3236;51.022;6.818;2022-11-15T03:05:33;14.70;;;8.32;;
6406;SDS011;3236;51.022;6.818;2022-11-15T03:08:12;12.50;;;9.20;;
6406;SDS011;3236;51.022;6.818;2022-11-15T03:10:50;11.70;;;8.25;;
6406;SDS011;3236;51.022;6.818;2022-11-15T03:13:27;13.95;;;9.15;;
6406;SDS011;3236;51.022;6.818;2022-11-15T03:16:04;21.02;;;8.90;;
6406;SDS011;3236;51.022;6.818;2022-11-15T03:18:37;18.60;;;9.60;;
6406;SDS011;3236;51.022;6.818;2022-11-15T03:21:08;16.23;;;8.80;;
6406;SDS011;3236;51.022;6.818;2022-11-15T03:23:38;13.85;;;8.50;;
6406;SDS011;3236;51.022;6.818;2022-11-15T03:26:07;14.88;;;9.55;;
6406;SDS011;3236;51.022;6.818;2022-11-15T03:28:40;19.48;;;9.38;;
6406;SDS011;3236;51.022;6.818;2022-11-15T03:31:10;13.88;;;8.35;;
6406;SDS011;3236;51.022;6.818;2022-11-15T03:34:00;17.00;;;8.60;;
6406;SDS011;3236;51.022;6.818;2022-11-15T03:36:33;12.48;;;8.70;;
6406;SDS011;3236;51.022;6.818;2022-11-15T03:39:02;18.98;;;8.95;;
6406;SDS011;3236;51.022;6.818;2022-11-15T03:41:36;15.60;;;9.15;;
6406;SDS011;3236;51.022;6.818;2022-11-15T03:44:10;17.42;;;9.70;;
6406;SDS011;3236;51.022;6.818;2022-11-15T03:46:40;16.40;;;10.52;;
6406;SDS011;3236;51.022;6.818;2022-11-15T03:49:17;18.85;;;9.82;;
6406;SDS011;3236;51.022;6.818;2022-11-15T03:51:49;16.23;;;9.98;;
6406;SDS011;3236;51.022;6.818;2022-11-15T03:54:19;14.18;;;9.07;;
6406;SDS011;3236;51.022;6.818;2022-11-15T03:56:46;12.48;;;8.90;;
6406;SDS011;3236;51.022;6.818;2022-11-15T03:59:16;13.57;;;7.93;;
6406;SDS011;3236;51.022;6.818;2022-11-15T04:01:44;13.50;;;8.73;;
6406;SDS011;3236;51.022;6.818;2022-11-15T04:04:11;18.92;;;9.68;;
6406;SDS011;3236;51.022;6.818;2022-11-15T04:06:39;19.60;;;9.73;;
6406;SDS011;3236;51.022;6.818;2022-11-15T04:09:07;17.25;;;8.45;;
6406;SDS011;3236;51.022;6.818;2022-11-15T04:11:37;12.55;;;7.93;;
6406;SDS011;3236;51.022;6.818;2022-11-15T04:14:04;14.55;;;8.82;;
6406;SDS011;3236;51.022;6.818;2022-11-15T04:16:35;11.32;;;7.80;;
6406;SDS011;3236;51.022;6.818;2022-11-15T04:19:02;13.88;;;8.75;;
6406;SDS011;3236;51.022;6.818;2022-11-15T04:21:48;11.13;;;7.82;;
6406;SDS011;3236;51.022;6.818;2022-11-15T04:24:33;12.70;;;8.38;;
6406;SDS011;3236;51.022;6.818;2022-11-15T04:27:00;12.35;;;7.75;;
6406;SDS011;3236;51.022;6.818;2022-11-15T04:29:28;17.05;;;8.60;;
6406;SDS011;3236;51.022;6.818;2022-11-15T04:32:05;11.85;;;7.30;;
6406;SDS011;3236;51.022;6.818;2022-11-15T04:34:33;14.73;;;8.38;;
6406;SDS011;3236;51.022;6.818;2022-11-15T04:37:01;12.95;;;8.02;;
6406;SDS011;3236;51.022;6.818;2022-11-15T04:39:41;13.75;;;7.65;;
6406;SDS011;3236;51.022;6.818;2022-11-15T04:42:09;17.48;;;8.35;;
6406;SDS011;3236;51.022;6.818;2022-11-15T04:44:36;15.13;;;8.38;;
6406;SDS011;3236;51.022;6.818;2022-11-15T04:47:04;16.05;;;8.23;;
6406;SDS011;3236;51.022;6.818;2022-11-15T04:49:31;11.50;;;7.93;;
6406;SDS011;3236;51.022;6.818;2022-11-15T04:51:58;12.60;;;8.27;;
6406;SDS011;3236;51.022;6.818;2022-11-15T04:54:27;18.42;;;8.00;;
6406;SDS011;3236;51.022;6.818;2022-11-15T04:56:54;13.50;;;8.02;;
6406;SDS011;3236;51.022;6.818;2022-11-15T04:59:21;12.65;;;8.32;;
6406;SDS011;3236;51.022;6.818;2022-11-15T05:01:48;12.10;;;7.47;;
6406;SDS011;3236;51.022;6.818;2022-11-15T05:04:15;12.07;;;8.18;;
6406;SDS011;3236;51.022;6.818;2022-11-15T05:06:44;14.52;;;8.20;;
6406;SDS011;3236;51.022;6.818;2022-11-15T05:09:11;15.95;;;7.68;;
6406;SDS011;3236;51.022;6.818;2022-11-15T05:11:40;14.57;;;8.32;;
6406;SDS011;3236;51.022;6.818;2022-11-15T05:14:08;13.10;;;8.82;;
6406;SDS011;3236;51.022;6.818;2022-11-15T05:16:35;15.40;;;8.82;;
6406;SDS011;3236;51.022;6.818;2022-11-15T05:19:03;13.00;;;8.13;;
6406;SDS011;3236;51.022;6.818;2022-11-15T05:21:31;13.43;;;8.48;;
6406;SDS011;3236;51.022;6.818;2022-11-15T05:23:58;12.18;;;8.23;;
6406;SDS011;3236;51.022;6.818;2022-11-15T05:26:26;10.82;;;7.85;;
6406;SDS011;3236;51.022;6.818;2022-11-15T05:28:55;11.32;;;7.30;;
6406;SDS011;3236;51.022;6.818;2022-11-15T05:31:23;12.13;;;7.50;;
6406;SDS011;3236;51.022;6.818;2022-11-15T05:33:51;11.38;;;7.88;;
6406;SDS011;3236;51.022;6.818;2022-11-15T05:36:21;9.48;;;7.07;;
6406;SDS011;3236;51.022;6.818;2022-11-15T05:38:53;17.08;;;7.03;;
6406;SDS011;3236;51.022;6.818;2022-11-15T05:41:21;11.63;;;6.93;;
6406;SDS011;3236;51.022;6.818;2022-11-15T05:43:55;11.05;;;6.70;;
6406;SDS011;3236;51.022;6.818;2022-11-15T05:46:25;11.70;;;6.88;;
6406;SDS011;3236;51.022;6.818;2022-11-15T05:48:53;10.02;;;6.38;;
6406;SDS011;3236;51.022;6.818;2022-11-15T05:51:24;7.82;;;6.15;;
6406;SDS011;3236;51.022;6.818;2022-11-15T05:53:53;9.10;;;6.45;;
6406;SDS011;3236;51.022;6.818;2022-11-15T05:56:23;8.07;;;6.38;;
6406;SDS011;3236;51.022;6.818;2022-11-15T05:58:51;8.75;;;5.43;;
6406;SDS011;3236;51.022;6.818;2022-11-15T06:01:21;14.02;;;5.93;;
6406;SDS011;3236;51.022;6.818;2022-11-15T06:03:49;6.05;;;5.28;;
6406;SDS011;3236;51.022;6.818;2022-11-15T06:06:16;10.23;;;5.93;;
6406;SDS011;3236;51.022;6.818;2022-11-15T06:08:43;7.50;;;5.20;;
6406;SDS011;3236;51.022;6.818;2022-11-15T06:11:13;5.85;;;5.22;;
6406;SDS011;3236;51.022;6.818;2022-11-15T06:13:40;7.65;;;5.13;;
6406;SDS011;3236;51.022;6.818;2022-11-15T06:16:07;8.70;;;5.40;;
6406;SDS011;3236;51.022;6.818;2022-11-15T06:18:36;5.88;;;4.68;;
6406;SDS011;3236;51.022;6.818;2022-11-15T06:21:04;6.90;;;4.95;;
6406;SDS011;3236;51.022;6.818;2022-11-15T06:23:32;5.78;;;4.68;;
6406;SDS011;3236;51.022;6.818;2022-11-15T06:26:01;8.13;;;5.50;;
6406;SDS011;3236;51.022;6.818;2022-11-15T06:28:29;9.30;;;4.90;;
6406;SDS011;3236;51.022;6.818;2022-11-15T06:31:01;8.90;;;4.75;;
6406;SDS011;3236;51.022;6.818;2022-11-15T06:33:29;6.40;;;4.68;;
6406;SDS011;3236;51.022;6.818;2022-11-15T06:36:00;9.15;;;5.57;;
6406;SDS011;3236;51.022;6.818;2022-11-15T06:38:28;8.73;;;5.40;;
6406;SDS011;3236;51.022;6.818;2022-11-15T06:40:55;10.23;;;5.05;;
6406;SDS011;3236;51.022;6.818;2022-11-15T06:43:37;7.15;;;5.80;;
6406;SDS011;3236;51.022;6.818;2022-11-15T06:46:17;8.48;;;4.95;;
6406;SDS011;3236;51.022;6.818;2022-11-15T06:48:45;7.82;;;4.63;;
6406;SDS011;3236;51.022;6.818;2022-11-15T06:51:14;8.27;;;4.78;;
6406;SDS011;3236;51.022;6.818;2022-11-15T06:53:41;5.97;;;4.40;;
6406;SDS011;3236;51.022;6.818;2022-11-15T06:56:08;5.90;;;4.32;;
6406;SDS011;3236;51.022;6.818;2022-11-15T06:58:36;5.47;;;3.97;;
6406;SDS011;3236;51.022;6.818;2022-11-15T07:01:05;5.78;;;4.15;;
6406;SDS011;3236;51.022;6.818;2022-11-15T07:03:33;4.90;;;4.00;;
6406;SDS011;3236;51.022;6.818;2022-11-15T07:06:02;4.80;;;3.75;;
6406;SDS011;3236;51.022;6.818;2022-11-15T07:08:31;5.32;;;3.42;;
6406;SDS011;3236;51.022;6.818;2022-11-15T07:11:02;5.45;;;3.20;;
6406;SDS011;3236;51.022;6.818;2022-11-15T07:13:31;4.30;;;3.17;;
6406;SDS011;3236;51.022;6.818;2022-11-15T07:16:01;6.70;;;2.97;;
6406;SDS011;3236;51.022;6.818;2022-11-15T07:18:30;3.72;;;2.70;;
6406;SDS011;3236;51.022;6.818;2022-11-15T07:21:02;4.25;;;3.03;;
6406;SDS011;3236;51.022;6.818;2022-11-15T07:23:32;3.25;;;2.67;;
6406;SDS011;3236;51.022;6.818;2022-11-15T07:25:59;3.95;;;2.90;;
6406;SDS011;3236;51.022;6.818;2022-11-15T07:28:26;5.28;;;2.80;;
6406;SDS011;3236;51.022;6.818;2022-11-15T07:30:54;5.57;;;3.03;;
6406;SDS011;3236;51.022;6.818;2022-11-15T07:33:21;4.68;;;2.97;;
6406;SDS011;3236;51.022;6.818;2022-11-15T07:35:48;3.83;;;2.83;;
6406;SDS011;3236;51.022;6.818;2022-11-15T07:38:17;7.60;;;2.97;;
6406;SDS011;3236;51.022;6.818;2022-11-15T07:40:47;9.52;;;3.22;;
6406;SDS011;3236;51.022;6.818;2022-11-15T07:43:14;10.27;;;3.70;;
6406;SDS011;3236;51.022;6.818;2022-11-15T07:45:42;7.10;;;2.63;;
6406;SDS011;3236;51.022;6.818;2022-11-15T07:48:11;5.30;;;3.38;;
6406;SDS011;3236;51.022;6.818;2022-11-15T07:50:40;6.45;;;3.40;;
6406;SDS011;3236;51.022;6.818;2022-11-15T07:53:08;5.15;;;3.55;;
6406;SDS011;3236;51.022;6.818;2022-11-15T07:55:36;4.68;;;3.15;;
6406;SDS011;3236;51.022;6.818;2022-11-15T07:58:08;6.18;;;3.55;;
6406;SDS011;3236;51.022;6.818;2022-11-15T08:00:44;4.28;;;2.38;;
6406;SDS011;3236;51.022;6.818;2022-11-15T08:03:15;4.75;;;3.03;;
6406;SDS011;3236;51.022;6.818;2022-11-15T08:05:43;3.05;;;2.53;;
6406;SDS011;3236;51.022;6.818;2022-11-15T08:08:16;3.35;;;2.55;;
6406;SDS011;3236;51.022;6.818;2022-11-15T08:10:44;2.85;;;2.38;;
6406;SDS011;3236;51.022;6.818;2022-11-15T08:13:12;3.97;;;2.50;;
6406;SDS011;3236;51.022;6.818;2022-11-15T08:15:40;3.47;;;2.38;;
6406;SDS011;3236;51.022;6.818;2022-11-15T08:18:09;6.35;;;2.67;;
6406;SDS011;3236;51.022;6.818;2022-11-15T08:20:37;5.10;;;2.42;;
6406;SDS011;3236;51.022;6.818;2022-11-15T08:23:05;7.72;;;3.00;;
6406;SDS011;3236;51.022;6.818;2022-11-15T08:25:33;4.10;;;2.97;;
6406;SDS011;3236;51.022;6.818;2022-11-15T08:28:02;4.72;;;3.30;;
6406;SDS011;3236;51.022;6.818;2022-11-15T08:30:33;5.53;;;3.33;;
6406;SDS011;3236;51.022;6.818;2022-11-15T08:33:02;6.03;;;3.45;;
6406;SDS011;3236;51.022;6.818;2022-11-15T08:35:33;4.70;;;3.42;;
6406;SDS011;3236;51.022;6.818;2022-11-15T08:38:04;4.40;;;3.15;;
6406;SDS011;3236;51.022;6.818;2022-11-15T08:40:34;5.57;;;2.80;;
6406;SDS011;3236;51.022;6.818;2022-11-15T08:43:07;3.80;;;2.60;;
6406;SDS011;3236;51.022;6.818;2022-11-15T08:45:36;4.03;;;2.40;;
6406;SDS011;3236;51.022;6.818;2022-11-15T08:48:03;4.18;;;2.38;;
6406;SDS011;3236;51.022;6.818;2022-11-15T08:50:31;4.72;;;2.72;;
6406;SDS011;3236;51.022;6.818;2022-11-15T08:53:03;4.97;;;2.75;;
6406;SDS011;3236;51.022;6.818;2022-11-15T08:55:31;4.30;;;2.38;;
6406;SDS011;3236;51.022;6.818;2022-11-15T08:57:59;4.15;;;2.17;;
6406;SDS011;3236;51.022;6.818;2022-11-15T09:00:29;2.83;;;2.05;;
6406;SDS011;3236;51.022;6.818;2022-11-15T09:02:58;4.13;;;2.63;;
6406;SDS011;3236;51.022;6.818;2022-11-15T09:05:25;3.75;;;1.80;;
6406;SDS011;3236;51.022;6.818;2022-11-15T09:07:52;4.97;;;2.15;;
6406;SDS011;3236;51.022;6.818;2022-11-15T09:10:20;3.97;;;2.15;;
6406;SDS011;3236;51.022;6.818;2022-11-15T09:12:47;2.50;;;1.40;;
6406;SDS011;3236;51.022;6.818;2022-11-15T09:15:15;2.33;;;1.67;;
6406;SDS011;3236;51.022;6.818;2022-11-15T09:17:43;3.53;;;2.00;;
6406;SDS011;3236;51.022;6.818;2022-11-15T09:20:15;5.88;;;2.10;;
6406;SDS011;3236;51.022;6.818;2022-11-15T09:22:42;2.40;;;1.50;;
6406;SDS011;3236;51.022;6.818;2022-11-15T09:25:09;3.13;;;1.52;;
6406;SDS011;3236;51.022;6.818;2022-11-15T09:27:36;3.35;;;1.83;;
6406;SDS011;3236;51.022;6.818;2022-11-15T09:30:04;2.90;;;1.75;;
6406;SDS011;3236;51.022;6.818;2022-11-15T09:32:35;1.60;;;1.05;;
6406;SDS011;3236;51.022;6.818;2022-11-15T09:35:02;3.78;;;1.40;;
6406;SDS011;3236;51.022;6.818;2022-11-15T09:37:32;3.25;;;1.73;;
6406;SDS011;3236;51.022;6.818;2022-11-15T09:40:00;5.25;;;2.08;;
6406;SDS011;3236;51.022;6.818;2022-11-15T09:42:34;5.18;;;1.60;;
6406;SDS011;3236;51.022;6.818;2022-11-15T09:45:14;3.38;;;1.65;;
6406;SDS011;3236;51.022;6.818;2022-11-15T09:47:51;3.78;;;1.40;;
6406;SDS011;3236;51.022;6.818;2022-11-15T09:50:35;2.38;;;1.40;;
6406;SDS011;3236;51.022;6.818;2022-11-15T09:53:08;3.92;;;1.42;;
6406;SDS011;3236;51.022;6.818;2022-11-15T09:55:40;5.10;;;1.50;;
6406;SDS011;3236;51.022;6.818;2022-11-15T09:58:18;6.07;;;1.52;;
6406;SDS011;3236;51.022;6.818;2022-11-15T10:00:53;1.95;;;1.15;;
6406;SDS011;3236;51.022;6.818;2022-11-15T10:03:25;1.50;;;1.38;;
6406;SDS011;3236;51.022;6.818;2022-11-15T10:05:55;4.22;;;1.40;;
6406;SDS011;3236;51.022;6.818;2022-11-15T10:11:15;2.00;;;0.95;;
6406;SDS011;3236;51.022;6.818;2022-11-15T10:13:46;4.53;;;1.10;;
6406;SDS011;3236;51.022;6.818;2022-11-15T10:16:19;1.90;;;0.95;;
6406;SDS011;3236;51.022;6.818;2022-11-15T10:19:01;3.03;;;1.00;;
6406;SDS011;3236;51.022;6.818;2022-11-15T10:21:39;5.88;;;1.13;;
6406;SDS011;3236;51.022;6.818;2022-11-15T10:24:23;7.03;;;2.10;;
6406;SDS011;3236;51.022;6.818;2022-11-15T10:26:54;3.05;;;1.15;;
6406;SDS011;3236;51.022;6.818;2022-11-15T10:29:22;5.40;;;1.25;;
6406;SDS011;3236;51.022;6.818;2022-11-15T10:31:51;2.33;;;1.20;;
6406;SDS011;3236;51.022;6.818;2022-11-15T10:34:19;4.45;;;1.10;;
6406;SDS011;3236;51.022;6.818;2022-11-15T10:36:53;4.43;;;1.02;;
6406;SDS011;3236;51.022;6.818;2022-11-15T10:39:26;1.17;;;1.08;;
6406;SDS011;3236;51.022;6.818;2022-11-15T10:41:53;3.45;;;1.10;;
6406;SDS011;3236;51.022;6.818;2022-11-15T10:44:26;1.98;;;1.20;;
6406;SDS011;3236;51.022;6.818;2022-11-15T10:49:53;2.85;;;1.00;;
6406;SDS011;3236;51.022;6.818;2022-11-15T10:52:23;2.33;;;1.13;;
6406;SDS011;3236;51.022;6.818;2022-11-15T10:54:52;1.67;;;0.95;;
6406;SDS011;3236;51.022;6.818;2022-11-15T10:57:25;5.85;;;1.27;;
6406;SDS011;3236;51.022;6.818;2022-11-15T10:59:54;4.75;;;0.85;;
6406;SDS011;3236;51.022;6.818;2022-11-15T11:02:33;1.55;;;1.02;;
6406;SDS011;3236;51.022;6.818;2022-11-15T11:05:06;4.40;;;1.10;;
6406;SDS011;3236;51.022;6.818;2022-11-15T11:07:55;4.20;;;0.77;;
6406;SDS011;3236;51.022;6.818;2022-11-15T11:10:26;3.88;;;0.80;;
6406;SDS011;3236;51.022;6.818;2022-11-15T11:13:08;3.30;;;0.95;;
6406;SDS011;3236;51.022;6.818;2022-11-15T11:15:39;3.83;;;0.90;;
6406;SDS011;3236;51.022;6.818;2022-11-15T11:18:14;2.55;;;0.73;;
6406;SDS011;3236;51.022;6.818;2022-11-15T11:20:49;2.30;;;0.93;;
6406;SDS011;3236;51.022;6.818;2022-11-15T11:23:25;1.35;;;0.82;;
6406;SDS011;3236;51.022;6.818;2022-11-15T11:26:10;3.15;;;0.80;;
6406;SDS011;3236;51.022;6.818;2022-11-15T11:28:53;3.05;;;1.00;;
6406;SDS011;3236;51.022;6.818;2022-11-15T11:31:30;3.95;;;0.77;;
6406;SDS011;3236;51.022;6.818;2022-11-15T11:34:09;5.22;;;0.80;;
6406;SDS011;3236;51.022;6.818;2022-11-15T11:36:44;7.32;;;1.20;;
6406;SDS011;3236;51.022;6.818;2022-11-15T11:39:19;2.88;;;0.80;;
6406;SDS011;3236;51.022;6.818;2022-11-15T11:42:02;2.95;;;0.90;;
6406;SDS011;3236;51.022;6.818;2022-11-15T11:44:40;3.65;;;0.88;;
6406;SDS011;3236;51.022;6.818;2022-11-15T11:47:18;3.13;;;1.10;;
6406;SDS011;3236;51.022;6.818;2022-11-15T11:49:50;2.72;;;1.02;;
6406;SDS011;3236;51.022;6.818;2022-11-15T11:52:22;2.38;;;0.80;;
6406;SDS011;3236;51.022;6.818;2022-11-15T11:54:54;3.92;;;0.90;;
6406;SDS011;3236;51.022;6.818;2022-11-15T11:57:31;1.92;;;0.82;;
6406;SDS011;3236;51.022;6.818;2022-11-15T12:00:04;3.85;;;0.82;;
6406;SDS011;3236;51.022;6.818;2022-11-15T12:02:41;2.25;;;0.75;;
6406;SDS011;3236;51.022;6.818;2022-11-15T12:05:13;1.42;;;0.80;;
6406;SDS011;3236;51.022;6.818;2022-11-15T12:07:45;2.65;;;1.23;;
6406;SDS011;3236;51.022;6.818;2022-11-15T12:10:16;2.95;;;0.80;;
6406;SDS011;3236;51.022;6.818;2022-11-15T12:12:51;2.33;;;0.98;;
6406;SDS011;3236;51.022;6.818;2022-11-15T12:15:23;3.17;;;1.08;;
6406;SDS011;3236;51.022;6.818;2022-11-15T12:17:54;3.30;;;1.00;;
6406;SDS011;3236;51.022;6.818;2022-11-15T12:20:23;2.80;;;1.20;;
6406;SDS011;3236;51.022;6.818;2022-11-15T12:22:53;2.13;;;0.80;;
6406;SDS011;3236;51.022;6.818;2022-11-15T12:25:25;2.92;;;1.42;;
6406;SDS011;3236;51.022;6.818;2022-11-15T12:27:58;5.53;;;0.88;;
6406;SDS011;3236;51.022;6.818;2022-11-15T12:30:30;4.97;;;1.50;;
6406;SDS011;3236;51.022;6.818;2022-11-15T12:33:15;3.72;;;1.05;;
6406;SDS011;3236;51.022;6.818;2022-11-15T12:36:04;4.45;;;1.20;;
6406;SDS011;3236;51.022;6.818;2022-11-15T12:38:51;2.03;;;1.00;;
6406;SDS011;3236;51.022;6.818;2022-11-15T12:41:21;3.17;;;0.90;;
6406;SDS011;3236;51.022;6.818;2022-11-15T12:43:50;5.60;;;1.10;;
6406;SDS011;3236;51.022;6.818;2022-11-15T12:46:22;3.42;;;1.00;;
6406;SDS011;3236;51.022;6.818;2022-11-15T12:49:08;4.43;;;1.10;;
6406;SDS011;3236;51.022;6.818;2022-11-15T12:54:53;4.07;;;0.90;;
6406;SDS011;3236;51.022;6.818;2022-11-15T12:57:38;3.63;;;1.25;;
6406;SDS011;3236;51.022;6.818;2022-11-15T13:03:26;2.78;;;0.85;;
6406;SDS011;3236;51.022;6.818;2022-11-15T13:06:02;3.85;;;0.93;;
6406;SDS011;3236;51.022;6.818;2022-11-15T13:08:49;1.23;;;1.10;;
6406;SDS011;3236;51.022;6.818;2022-11-15T13:17:17;3.33;;;1.13;;
6406;SDS011;3236;51.022;6.818;2022-11-15T13:22:50;4.97;;;1.30;;
6406;SDS011;3236;51.022;6.818;2022-11-15T13:28:29;3.45;;;0.88;;
6406;SDS011;3236;51.022;6.818;2022-11-15T13:31:00;2.70;;;1.30;;
6406;SDS011;3236;51.022;6.818;2022-11-15T13:33:30;3.47;;;1.25;;
6406;SDS011;3236;51.022;6.818;2022-11-15T13:36:02;3.90;;;1.42;;
6406;SDS011;3236;51.022;6.818;2022-11-15T13:38:33;2.67;;;1.27;;
6406;SDS011;3236;51.022;6.818;2022-11-15T13:41:10;3.97;;;1.33;;
6406;SDS011;3236;51.022;6.818;2022-11-15T13:43:43;6.38;;;1.55;;
6406;SDS011;3236;51.022;6.818;2022-11-15T13:46:11;3.67;;;1.60;;
6406;SDS011;3236;51.022;6.818;2022-11-15T13:48:40;4.28;;;1.40;;
6406;SDS011;3236;51.022;6.818;2022-11-15T13:51:13;2.60;;;1.83;;
6406;SDS011;3236;51.022;6.818;2022-11-15T13:53:45;6.00;;;2.08;;
6406;SDS011;3236;51.022;6.818;2022-11-15T13:56:15;5.25;;;1.98;;
6406;SDS011;3236;51.022;6.818;2022-11-15T13:58:44;1.90;;;1.77;;
6406;SDS011;3236;51.022;6.818;2022-11-15T14:01:14;9.45;;;1.80;;
6406;SDS011;3236;51.022;6.818;2022-11-15T14:03:49;4.82;;;2.20;;
6406;SDS011;3236;51.022;6.818;2022-11-15T14:06:24;2.08;;;1.70;;
6406;SDS011;3236;51.022;6.818;2022-11-15T14:11:52;6.18;;;2.38;;
6406;SDS011;3236;51.022;6.818;2022-11-15T14:14:21;3.80;;;1.98;;
6406;SDS011;3236;51.022;6.818;2022-11-15T14:16:50;4.32;;;2.20;;
6406;SDS011;3236;51.022;6.818;2022-11-15T14:19:35;3.42;;;2.40;;
6406;SDS011;3236;51.022;6.818;2022-11-15T14:22:09;2.85;;;2.22;;
6406;SDS011;3236;51.022;6.818;2022-11-15T14:24:38;4.07;;;2.22;;
6406;SDS011;3236;51.022;6.818;2022-11-15T14:27:16;4.70;;;2.35;;
6406;SDS011;3236;51.022;6.818;2022-11-15T14:29:49;4.25;;;2.90;;
6406;SDS011;3236;51.022;6.818;2022-11-15T14:32:19;5.07;;;2.47;;
6406;SDS011;3236;51.022;6.818;2022-11-15T14:34:47;4.30;;;2.90;;
6406;SDS011;3236;51.022;6.818;2022-11-15T14:37:20;2.72;;;2.33;;
6406;SDS011;3236;51.022;6.818;2022-11-15T14:39:50;2.63;;;2.20;;
6406;SDS011;3236;51.022;6.818;2022-11-15T14:42:24;3.33;;;2.15;;
6406;SDS011;3236;51.022;6.818;2022-11-15T14:44:51;3.97;;;2.10;;
6406;SDS011;3236;51.022;6.818;2022-11-15T14:47:19;4.30;;;2.30;;
6406;SDS011;3236;51.022;6.818;2022-11-15T14:49:46;2.40;;;2.20;;
6406;SDS011;3236;51.022;6.818;2022-11-15T14:55:03;3.63;;;2.10;;
6406;SDS011;3236;51.022;6.818;2022-11-15T14:57:38;6.97;;;2.20;;
6406;SDS011;3236;51.022;6.818;2022-11-15T15:00:08;6.43;;;2.53;;
6406;SDS011;3236;51.022;6.818;2022-11-15T15:02:36;4.22;;;2.50;;
6406;SDS011;3236;51.022;6.818;2022-11-15T15:05:10;2.97;;;2.03;;
6406;SDS011;3236;51.022;6.818;2022-11-15T15:07:42;6.53;;;2.08;;
6406;SDS011;3236;51.022;6.818;2022-11-15T15:10:10;4.55;;;2.30;;
6406;SDS011;3236;51.022;6.818;2022-11-15T15:12:39;3.53;;;2.38;;
6406;SDS011;3236;51.022;6.818;2022-11-15T15:15:14;5.38;;;2.25;;
6406;SDS011;3236;51.022;6.818;2022-11-15T15:17:42;4.22;;;2.30;;
6406;SDS011;3236;51.022;6.818;2022-11-15T15:22:59;3.92;;;2.17;;
6406;SDS011;3236;51.022;6.818;2022-11-15T15:25:27;4.25;;;2.42;;
6406;SDS011;3236;51.022;6.818;2022-11-15T15:27:57;3.22;;;2.25;;
6406;SDS011;3236;51.022;6.818;2022-11-15T15:30:25;4.75;;;2.25;;
6406;SDS011;3236;51.022;6.818;2022-11-15T15:32:53;5.97;;;2.17;;
6406;SDS011;3236;51.022;6.818;2022-11-15T15:35:21;3.35;;;1.88;;
6406;SDS011;3236;51.022;6.818;2022-11-15T15:37:49;6.38;;;2.38;;
6406;SDS011;3236;51.022;6.818;2022-11-15T15:40:19;8.35;;;2.90;;
6406;SDS011;3236;51.022;6.818;2022-11-15T15:42:47;4.60;;;2.80;;
6406;SDS011;3236;51.022;6.818;2022-11-15T15:45:16;7.53;;;3.88;;
6406;SDS011;3236;51.022;6.818;2022-11-15T15:47:44;4.68;;;2.63;;
6406;SDS011;3236;51.022;6.818;2022-11-15T15:50:20;3.65;;;1.95;;
6406;SDS011;3236;51.022;6.818;2022-11-15T15:52:59;3.33;;;2.13;;
6406;SDS011;3236;51.022;6.818;2022-11-15T15:55:28;2.50;;;1.75;;
6406;SDS011;3236;51.022;6.818;2022-11-15T15:57:56;4.28;;;2.03;;
6406;SDS011;3236;51.022;6.818;2022-11-15T16:00:24;2.75;;;1.83;;
6406;SDS011;3236;51.022;6.818;2022-11-15T16:02:53;1.80;;;1.70;;
6406;SDS011;3236;51.022;6.818;2022-11-15T16:05:21;4.10;;;1.90;;
6406;SDS011;3236;51.022;6.818;2022-11-15T16:07:49;4.57;;;2.10;;
6406;SDS011;3236;51.022;6.818;2022-11-15T16:10:26;3.47;;;2.13;;